createdAt,value
2018-12-18T00:00:44.692Z,0
2018-12-18T00:01:45.414Z,0
2018-12-18T00:02:46.133Z,0
2018-12-18T00:03:46.849Z,0
2018-12-18T00:04:48.046Z,0
2018-12-18T00:05:48.824Z,0
2018-12-18T00:06:49.784Z,0
2018-12-18T00:07:51.089Z,0
2018-12-18T00:08:51.848Z,0
2018-12-18T00:09:52.959Z,0
2018-12-18T00:10:53.745Z,0
2018-12-18T00:11:59.239Z,0
2018-12-18T00:12:55.293Z,0
2018-12-18T00:13:56.194Z,0
2018-12-18T00:14:57.111Z,0
2018-12-18T00:15:57.852Z,0
2018-12-18T00:16:58.661Z,0
2018-12-18T00:17:59.409Z,0
2018-12-18T00:19:00.272Z,0
2018-12-18T00:20:01.457Z,0
2018-12-18T00:21:02.524Z,0
2018-12-18T00:22:03.243Z,0
2018-12-18T00:23:04.164Z,0
2018-12-18T00:24:04.856Z,0
2018-12-18T00:25:05.758Z,0
2018-12-18T00:26:06.535Z,0
2018-12-18T00:27:07.357Z,0
2018-12-18T00:28:08.174Z,0
2018-12-18T00:29:08.899Z,0
2018-12-18T00:30:09.893Z,0
2018-12-18T00:31:10.728Z,0
2018-12-18T00:32:11.485Z,0
2018-12-18T00:33:12.254Z,0
2018-12-18T00:34:13.188Z,0
2018-12-18T00:35:13.968Z,0
2018-12-18T00:36:14.735Z,0
2018-12-18T00:37:15.514Z,0
2018-12-18T00:38:16.220Z,0
2018-12-18T00:39:16.950Z,0
2018-12-18T00:40:17.657Z,0
2018-12-18T00:41:18.382Z,0
2018-12-18T00:42:19.106Z,0
2018-12-18T00:43:19.811Z,0
2018-12-18T00:44:20.778Z,0
2018-12-18T00:45:21.504Z,0
2018-12-18T00:46:22.189Z,0
2018-12-18T00:47:22.897Z,0
2018-12-18T00:48:23.610Z,0
2018-12-18T00:49:24.325Z,0
2018-12-18T00:50:25.057Z,0
2018-12-18T00:51:25.760Z,0
2018-12-18T00:52:26.486Z,0
2018-12-18T00:53:27.201Z,0
2018-12-18T00:54:27.915Z,0
2018-12-18T00:55:28.624Z,0
2018-12-18T00:56:29.350Z,0
2018-12-18T00:57:30.072Z,0
2018-12-18T00:58:30.773Z,0
2018-12-18T00:59:31.491Z,0
2018-12-18T01:00:32.211Z,0
2018-12-18T01:01:32.913Z,0
2018-12-18T01:02:33.667Z,0
2018-12-18T01:03:34.338Z,0
2018-12-18T01:04:35.051Z,0
2018-12-18T01:05:35.757Z,0
2018-12-18T01:06:36.470Z,0
2018-12-18T01:07:37.190Z,0
2018-12-18T01:08:37.892Z,0
2018-12-18T01:09:38.597Z,0
2018-12-18T01:10:39.310Z,0
2018-12-18T01:11:40.044Z,0
2018-12-18T01:12:40.751Z,0
2018-12-18T01:13:41.457Z,0
2018-12-18T01:14:42.172Z,0
2018-12-18T01:15:42.866Z,0
2018-12-18T01:16:43.580Z,0
2018-12-18T01:17:44.391Z,0
2018-12-18T01:18:45.115Z,0
2018-12-18T01:19:45.830Z,0
2018-12-18T01:20:46.542Z,0
2018-12-18T01:21:47.264Z,0
2018-12-18T01:22:48.097Z,0
2018-12-18T01:23:48.798Z,0
2018-12-18T01:24:49.524Z,0
2018-12-18T01:25:50.230Z,0
2018-12-18T01:26:50.956Z,0
2018-12-18T01:27:51.757Z,0
2018-12-18T01:28:52.720Z,0
2018-12-18T01:29:53.438Z,0
2018-12-18T01:30:54.141Z,0
2018-12-18T01:31:54.846Z,0
2018-12-18T01:32:55.658Z,0
2018-12-18T01:33:59.331Z,0
2018-12-18T01:34:57.080Z,0
2018-12-18T01:35:57.786Z,0
2018-12-18T01:36:58.739Z,0
2018-12-18T01:37:59.448Z,0
2018-12-18T01:39:00.161Z,0
2018-12-18T01:40:00.872Z,0
2018-12-18T01:41:01.822Z,0
2018-12-18T01:42:02.774Z,0
2018-12-18T01:43:03.490Z,0
2018-12-18T01:44:04.303Z,0
2018-12-18T01:45:05.015Z,0
2018-12-18T01:46:05.752Z,0
2018-12-18T01:47:06.469Z,0
2018-12-18T01:48:07.167Z,0
2018-12-18T01:49:07.880Z,0
2018-12-18T01:50:08.597Z,0
2018-12-18T01:51:09.304Z,0
2018-12-18T01:52:10.018Z,0
2018-12-18T01:53:10.723Z,0
2018-12-18T01:54:11.529Z,0
2018-12-18T01:55:12.247Z,0
2018-12-18T01:56:12.959Z,0
2018-12-18T01:57:13.667Z,0
2018-12-18T01:58:14.381Z,0
2018-12-18T01:59:15.203Z,0
2018-12-18T02:00:15.917Z,0
2018-12-18T02:01:16.875Z,0
2018-12-18T02:02:17.840Z,0
2018-12-18T02:03:18.560Z,0
2018-12-18T02:04:19.263Z,0
2018-12-18T02:05:19.985Z,0
2018-12-18T02:06:20.751Z,0
2018-12-18T02:07:21.470Z,0
2018-12-18T02:08:22.177Z,0
2018-12-18T02:09:22.884Z,0
2018-12-18T02:10:23.611Z,0
2018-12-18T02:11:24.322Z,0
2018-12-18T02:12:25.051Z,0
2018-12-18T02:13:25.758Z,0
2018-12-18T02:14:26.468Z,0
2018-12-18T02:15:27.185Z,0
2018-12-18T02:16:27.894Z,0
2018-12-18T02:17:28.611Z,0
2018-12-18T02:18:29.317Z,0
2018-12-18T02:19:30.047Z,0
2018-12-18T02:20:30.814Z,0
2018-12-18T02:21:31.779Z,0
2018-12-18T02:22:32.504Z,0
2018-12-18T02:23:33.211Z,0
2018-12-18T02:24:33.930Z,0
2018-12-18T02:25:34.746Z,0
2018-12-18T02:26:35.471Z,0
2018-12-18T02:27:36.181Z,0
2018-12-18T02:28:36.896Z,0
2018-12-18T02:29:37.604Z,0
2018-12-18T02:30:38.311Z,0
2018-12-18T02:31:39.041Z,0
2018-12-18T02:32:39.751Z,0
2018-12-18T02:33:40.457Z,0
2018-12-18T02:34:41.419Z,0
2018-12-18T02:35:42.135Z,0
2018-12-18T02:36:42.854Z,0
2018-12-18T02:37:43.568Z,0
2018-12-18T02:38:44.274Z,0
2018-12-18T02:39:44.987Z,0
2018-12-18T02:40:45.703Z,0
2018-12-18T02:41:46.414Z,0
2018-12-18T02:42:47.120Z,0
2018-12-18T02:43:47.832Z,0
2018-12-18T02:44:48.546Z,0
2018-12-18T02:45:49.263Z,0
2018-12-18T02:46:49.975Z,0
2018-12-18T02:47:50.689Z,0
2018-12-18T02:48:51.410Z,0
2018-12-18T02:49:52.379Z,0
2018-12-18T02:50:53.094Z,0
2018-12-18T02:51:53.804Z,0
2018-12-18T02:52:54.524Z,0
2018-12-18T02:53:55.340Z,0
2018-12-18T02:54:56.062Z,0
2018-12-18T02:55:56.768Z,0
2018-12-18T02:56:57.477Z,0
2018-12-18T02:57:58.201Z,0
2018-12-18T02:58:59.004Z,0
2018-12-18T02:59:59.713Z,0
2018-12-18T03:01:00.434Z,0
2018-12-18T03:02:01.144Z,0
2018-12-18T03:03:01.871Z,0
2018-12-18T03:04:02.586Z,0
2018-12-18T03:05:03.298Z,0
2018-12-18T03:06:04.378Z,0
2018-12-18T03:07:05.090Z,0
2018-12-18T03:08:05.819Z,0
2018-12-18T03:09:06.541Z,0
2018-12-18T03:10:07.249Z,0
2018-12-18T03:11:07.983Z,0
2018-12-18T03:12:08.688Z,0
2018-12-18T03:13:09.390Z,0
2018-12-18T03:14:10.136Z,0
2018-12-18T03:15:10.840Z,0
2018-12-18T03:16:11.551Z,0
2018-12-18T03:17:12.411Z,0
2018-12-18T03:18:13.143Z,0
2018-12-18T03:19:13.863Z,0
2018-12-18T03:20:14.575Z,0
2018-12-18T03:21:15.282Z,0
2018-12-18T03:22:16.056Z,0
2018-12-18T03:23:16.771Z,0
2018-12-18T03:24:17.482Z,0
2018-12-18T03:25:18.204Z,0
2018-12-18T03:26:18.926Z,0
2018-12-18T03:27:19.639Z,0
2018-12-18T03:28:20.356Z,0
2018-12-18T03:29:21.067Z,0
2018-12-18T03:30:21.784Z,0
2018-12-18T03:31:22.500Z,0
2018-12-18T03:32:23.218Z,0
2018-12-18T03:33:23.928Z,0
2018-12-18T03:34:28.287Z,0
2018-12-18T03:35:25.351Z,0
2018-12-18T03:36:26.063Z,0
2018-12-18T03:37:27.030Z,0
2018-12-18T03:38:27.794Z,0
2018-12-18T03:39:28.521Z,0
2018-12-18T03:40:29.224Z,0
2018-12-18T03:41:30.178Z,0
2018-12-18T03:42:31.158Z,0
2018-12-18T03:43:31.871Z,0
2018-12-18T03:44:32.584Z,0
2018-12-18T03:45:33.397Z,0
2018-12-18T03:46:34.106Z,0
2018-12-18T03:47:34.837Z,0
2018-12-18T03:48:35.541Z,0
2018-12-18T03:49:36.251Z,0
2018-12-18T03:50:36.961Z,0
2018-12-18T03:51:37.671Z,0
2018-12-18T03:52:38.385Z,0
2018-12-18T03:53:39.100Z,0
2018-12-18T03:54:39.815Z,0
2018-12-18T03:55:40.550Z,0
2018-12-18T03:56:41.500Z,0
2018-12-18T03:57:42.207Z,0
2018-12-18T03:58:42.936Z,0
2018-12-18T03:59:43.906Z,0
2018-12-18T04:00:44.633Z,0
2018-12-18T04:01:45.341Z,0
2018-12-18T04:02:46.064Z,0
2018-12-18T04:03:46.775Z,0
2018-12-18T04:04:47.736Z,0
2018-12-18T04:05:48.477Z,0
2018-12-18T04:06:49.456Z,0
2018-12-18T04:07:50.160Z,0
2018-12-18T04:08:50.883Z,0
2018-12-18T04:09:51.855Z,0
2018-12-18T04:10:52.557Z,0
2018-12-18T04:11:53.282Z,0
2018-12-18T04:12:54.016Z,0
2018-12-18T04:13:54.711Z,0
2018-12-18T04:14:55.464Z,0
2018-12-18T04:15:56.551Z,0
2018-12-18T04:16:57.289Z,0
2018-12-18T04:17:58.215Z,0
2018-12-18T04:18:59.115Z,0
2018-12-18T04:19:59.852Z,0
2018-12-18T04:21:00.977Z,0
2018-12-18T04:22:01.753Z,0
2018-12-18T04:23:02.995Z,0
2018-12-18T04:24:03.775Z,0
2018-12-18T04:25:04.536Z,0
2018-12-18T04:26:05.281Z,0
2018-12-18T04:27:06.166Z,0
2018-12-18T04:28:07.022Z,0
2018-12-18T04:29:07.815Z,0
2018-12-18T04:30:08.645Z,0
2018-12-18T04:31:09.388Z,0
2018-12-18T04:32:10.254Z,0
2018-12-18T04:33:11.556Z,0
2018-12-18T04:34:12.301Z,0
2018-12-18T04:35:13.408Z,0
2018-12-18T04:36:14.493Z,0
2018-12-18T04:37:15.224Z,0
2018-12-18T04:38:16.158Z,0
2018-12-18T04:39:16.901Z,0
2018-12-18T04:40:18.009Z,0
2018-12-18T04:41:18.735Z,0
2018-12-18T04:42:19.937Z,0
2018-12-18T04:43:20.720Z,0
2018-12-18T04:44:21.905Z,0
2018-12-18T04:45:22.993Z,0
2018-12-18T04:46:23.778Z,0
2018-12-18T04:47:24.967Z,0
2018-12-18T04:48:26.040Z,0
2018-12-18T04:49:26.796Z,0
2018-12-18T04:50:27.958Z,0
2018-12-18T04:51:28.759Z,0
2018-12-18T04:52:29.566Z,0
2018-12-18T04:53:30.299Z,0
2018-12-18T04:54:31.421Z,0
2018-12-18T04:55:32.313Z,0
2018-12-18T04:56:33.218Z,0
2018-12-18T04:57:33.946Z,0
2018-12-18T04:58:34.771Z,0
2018-12-18T04:59:35.528Z,0
2018-12-18T05:00:36.425Z,0
2018-12-18T05:01:37.533Z,0
2018-12-18T05:02:38.274Z,0
2018-12-18T05:03:39.499Z,0
2018-12-18T05:04:40.242Z,0
2018-12-18T05:05:41.520Z,0
2018-12-18T05:06:42.249Z,0
2018-12-18T05:07:43.058Z,0
2018-12-18T05:08:43.789Z,0
2018-12-18T05:09:44.894Z,0
2018-12-18T05:10:45.728Z,0
2018-12-18T05:11:46.483Z,0
2018-12-18T05:12:47.363Z,0
2018-12-18T05:13:48.478Z,0
2018-12-18T05:14:49.279Z,0
2018-12-18T05:15:50.018Z,0
2018-12-18T05:16:50.747Z,0
2018-12-18T05:17:51.604Z,0
2018-12-18T05:18:52.313Z,0
2018-12-18T05:19:53.043Z,0
2018-12-18T05:20:53.744Z,0
2018-12-18T05:21:54.465Z,0
2018-12-18T05:22:55.184Z,0
2018-12-18T05:23:55.894Z,0
2018-12-18T05:24:56.656Z,0
2018-12-18T05:25:57.369Z,0
2018-12-18T05:26:58.102Z,0
2018-12-18T05:27:58.822Z,0
2018-12-18T05:28:59.543Z,0
2018-12-18T05:30:00.251Z,0
2018-12-18T05:31:00.973Z,0
2018-12-18T05:32:01.681Z,0
2018-12-18T05:33:02.402Z,0
2018-12-18T05:34:03.110Z,0
2018-12-18T05:35:03.875Z,0
2018-12-18T05:36:04.581Z,0
2018-12-18T05:37:05.551Z,0
2018-12-18T05:38:06.253Z,0
2018-12-18T05:39:06.969Z,0
2018-12-18T05:40:07.698Z,0
2018-12-18T05:41:08.418Z,0
2018-12-18T05:42:09.143Z,0
2018-12-18T05:43:09.864Z,0
2018-12-18T05:44:10.583Z,0
2018-12-18T05:45:11.336Z,0
2018-12-18T05:46:12.049Z,0
2018-12-18T05:47:12.763Z,0
2018-12-18T05:48:13.487Z,0
2018-12-18T05:49:14.199Z,0
2018-12-18T05:50:14.917Z,0
2018-12-18T05:51:15.626Z,0
2018-12-18T05:52:16.335Z,0
2018-12-18T05:53:17.296Z,0
2018-12-18T05:54:18.008Z,0
2018-12-18T05:55:18.719Z,0
2018-12-18T05:56:19.443Z,0
2018-12-18T05:57:20.557Z,0
2018-12-18T05:58:21.273Z,0
2018-12-18T05:59:22.061Z,0
2018-12-18T06:00:22.712Z,0
2018-12-18T06:01:23.421Z,0
2018-12-18T06:02:24.229Z,0
2018-12-18T06:03:24.947Z,0
2018-12-18T06:04:25.696Z,0
2018-12-18T06:05:26.380Z,0
2018-12-18T06:06:27.340Z,0
2018-12-18T06:07:28.157Z,0
2018-12-18T06:08:28.876Z,0
2018-12-18T06:09:29.597Z,0
2018-12-18T06:10:30.308Z,0
2018-12-18T06:11:31.016Z,0
2018-12-18T06:12:31.743Z,0
2018-12-18T06:13:32.513Z,0
2018-12-18T06:14:33.238Z,0
2018-12-18T06:15:33.951Z,0
2018-12-18T06:16:34.673Z,0
2018-12-18T06:17:35.643Z,0
2018-12-18T06:18:36.366Z,0
2018-12-18T06:19:37.087Z,0
2018-12-18T06:20:37.803Z,0
2018-12-18T06:21:38.518Z,0
2018-12-18T06:22:39.234Z,0
2018-12-18T06:23:39.972Z,0
2018-12-18T06:24:40.694Z,0
2018-12-18T06:25:41.403Z,0
2018-12-18T06:26:42.118Z,0
2018-12-18T06:27:42.843Z,0
2018-12-18T06:28:43.569Z,0
2018-12-18T06:29:44.282Z,0
2018-12-18T06:30:44.995Z,0
2018-12-18T06:31:45.715Z,0
2018-12-18T06:32:46.431Z,0
2018-12-18T06:33:47.140Z,0
2018-12-18T06:34:47.860Z,0
2018-12-18T06:35:48.580Z,0
2018-12-18T06:36:49.536Z,0
2018-12-18T06:37:50.258Z,0
2018-12-18T06:38:50.974Z,0
2018-12-18T06:39:51.691Z,0
2018-12-18T06:40:52.397Z,0
2018-12-18T06:41:53.112Z,0
2018-12-18T06:42:53.881Z,0
2018-12-18T06:43:54.594Z,0
2018-12-18T06:44:55.309Z,0
2018-12-18T06:45:56.025Z,0
2018-12-18T06:46:56.740Z,0
2018-12-18T06:47:57.464Z,0
2018-12-18T06:48:58.180Z,0
2018-12-18T06:49:58.907Z,0
2018-12-18T06:50:59.621Z,0
2018-12-18T06:52:00.433Z,0
2018-12-18T06:53:01.149Z,0
2018-12-18T06:54:01.857Z,4
2018-12-18T06:55:02.578Z,4
2018-12-18T06:56:03.345Z,4
2018-12-18T06:57:04.071Z,0
2018-12-18T06:58:04.804Z,4
2018-12-18T06:59:05.525Z,4
2018-12-18T07:00:06.243Z,4
2018-12-18T07:01:06.965Z,4
2018-12-18T07:02:07.671Z,8
2018-12-18T07:03:08.415Z,8
2018-12-18T07:04:09.127Z,8
2018-12-18T07:05:09.833Z,8
2018-12-18T07:06:10.557Z,12
2018-12-18T07:07:11.266Z,16
2018-12-18T07:08:12.246Z,16
2018-12-18T07:09:13.033Z,20
2018-12-18T07:10:13.759Z,24
2018-12-18T07:11:14.493Z,28
2018-12-18T07:12:16.384Z,32
2018-12-18T07:13:18.080Z,36
2018-12-18T07:14:18.896Z,36
2018-12-18T07:15:19.982Z,44
2018-12-18T07:16:20.997Z,52
2018-12-18T07:17:21.697Z,60
2018-12-18T07:18:22.408Z,64
2018-12-18T07:19:23.120Z,72
2018-12-18T07:20:23.831Z,76
2018-12-18T07:21:24.548Z,80
2018-12-18T07:22:25.275Z,84
2018-12-18T07:23:26.136Z,96
2018-12-18T07:24:26.852Z,100
2018-12-18T07:25:27.565Z,100
2018-12-18T07:26:28.289Z,104
2018-12-18T07:27:29.031Z,116
2018-12-18T07:28:29.744Z,124
2018-12-18T07:29:30.470Z,140
2018-12-18T07:30:31.292Z,144
2018-12-18T07:31:32.018Z,160
2018-12-18T07:32:32.752Z,184
2018-12-18T07:33:33.473Z,180
2018-12-18T07:34:34.191Z,188
2018-12-18T07:35:34.903Z,212
2018-12-18T07:36:35.625Z,212
2018-12-18T07:37:36.344Z,216
2018-12-18T07:38:37.061Z,260
2018-12-18T07:39:37.783Z,248
2018-12-18T07:40:38.806Z,256
2018-12-18T07:41:39.532Z,260
2018-12-18T07:42:40.252Z,268
2018-12-18T07:43:40.977Z,284
2018-12-18T07:44:41.694Z,276
2018-12-18T07:45:42.519Z,288
2018-12-18T07:46:43.226Z,312
2018-12-18T07:47:43.943Z,328
2018-12-18T07:48:44.662Z,324
2018-12-18T07:49:45.377Z,336
2018-12-18T07:50:46.100Z,332
2018-12-18T07:51:46.819Z,352
2018-12-18T07:52:47.537Z,404
2018-12-18T07:53:48.332Z,424
2018-12-18T07:54:49.057Z,444
2018-12-18T07:55:49.782Z,460
2018-12-18T07:56:50.506Z,512
2018-12-18T07:57:51.217Z,540
2018-12-18T07:58:51.927Z,592
2018-12-18T07:59:52.644Z,660
2018-12-18T08:00:53.362Z,668
2018-12-18T08:01:54.092Z,748
2018-12-18T08:02:54.809Z,884
2018-12-18T08:03:55.537Z,984
2018-12-18T08:04:56.259Z,1020
2018-12-18T08:05:56.994Z,1108
2018-12-18T08:06:57.715Z,1156
2018-12-18T08:07:58.428Z,1300
2018-12-18T08:08:59.141Z,1328
2018-12-18T08:09:59.870Z,1360
2018-12-18T08:11:00.595Z,1328
2018-12-18T08:12:01.329Z,1388
2018-12-18T08:13:02.052Z,1444
2018-12-18T08:14:02.762Z,1524
2018-12-18T08:15:03.483Z,1608
2018-12-18T08:16:04.198Z,1624
2018-12-18T08:17:04.936Z,1688
2018-12-18T08:18:05.676Z,1760
2018-12-18T08:19:06.390Z,1860
2018-12-18T08:20:07.115Z,1908
2018-12-18T08:21:07.831Z,2024
2018-12-18T08:22:08.810Z,2092
2018-12-18T08:23:09.515Z,2168
2018-12-18T08:24:10.232Z,2280
2018-12-18T08:25:10.948Z,2220
2018-12-18T08:26:11.663Z,2340
2018-12-18T08:27:12.380Z,2736
2018-12-18T08:28:13.096Z,3080
2018-12-18T08:29:13.823Z,3192
2018-12-18T08:30:14.547Z,3228
2018-12-18T08:31:15.271Z,3372
2018-12-18T08:32:15.990Z,3492
2018-12-18T08:33:16.948Z,3368
2018-12-18T08:34:17.664Z,3092
2018-12-18T08:35:18.403Z,2880
2018-12-18T08:36:19.130Z,3056
2018-12-18T08:37:19.855Z,3132
2018-12-18T08:38:20.636Z,3148
2018-12-18T08:39:21.343Z,2996
2018-12-18T08:40:22.063Z,2748
2018-12-18T08:41:22.784Z,2708
2018-12-18T08:42:23.503Z,2800
2018-12-18T08:43:24.270Z,2956
2018-12-18T08:44:25.019Z,2836
2018-12-18T08:45:25.732Z,3020
2018-12-18T08:46:26.439Z,3036
2018-12-18T08:47:27.162Z,3108
2018-12-18T08:48:27.936Z,3296
2018-12-18T08:49:28.652Z,3460
2018-12-18T08:50:29.625Z,3728
2018-12-18T08:51:30.343Z,3928
2018-12-18T08:52:31.064Z,4096
2018-12-18T08:53:31.782Z,4104
2018-12-18T08:54:32.497Z,4204
2018-12-18T08:55:33.223Z,4428
2018-12-18T08:56:33.962Z,4392
2018-12-18T08:57:34.716Z,4304
2018-12-18T08:58:35.436Z,4520
2018-12-18T08:59:36.153Z,4752
2018-12-18T09:00:36.865Z,4876
2018-12-18T09:01:37.836Z,5064
2018-12-18T09:02:38.556Z,5116
2018-12-18T09:03:39.268Z,5404
2018-12-18T09:04:39.993Z,5532
2018-12-18T09:05:43.277Z,5836
2018-12-18T09:06:41.444Z,5408
2018-12-18T09:07:42.162Z,5140
2018-12-18T09:08:42.885Z,5300
2018-12-18T09:09:43.851Z,5516
2018-12-18T09:10:44.572Z,5820
2018-12-18T09:11:45.297Z,5452
2018-12-18T09:12:46.009Z,5272
2018-12-18T09:13:46.735Z,5464
2018-12-18T09:14:47.452Z,5556
2018-12-18T09:15:48.172Z,5424
2018-12-18T09:16:48.889Z,5396
2018-12-18T09:17:49.615Z,5456
2018-12-18T09:18:50.384Z,5628
2018-12-18T09:19:51.353Z,5728
2018-12-18T09:20:52.076Z,6076
2018-12-18T09:21:52.791Z,5980
2018-12-18T09:22:53.507Z,6148
2018-12-18T09:23:54.327Z,5916
2018-12-18T09:24:55.314Z,5904
2018-12-18T09:25:56.024Z,6248
2018-12-18T09:26:56.761Z,5940
2018-12-18T09:27:57.485Z,5920
2018-12-18T09:28:58.257Z,5816
2018-12-18T09:29:58.987Z,5656
2018-12-18T09:30:59.701Z,5548
2018-12-18T09:32:00.413Z,5608
2018-12-18T09:33:01.138Z,5692
2018-12-18T09:34:01.860Z,5652
2018-12-18T09:35:02.634Z,5660
2018-12-18T09:36:03.344Z,5780
2018-12-18T09:37:04.320Z,6144
2018-12-18T09:38:05.045Z,7176
2018-12-18T09:39:05.747Z,8056
2018-12-18T09:40:06.474Z,7828
2018-12-18T09:41:07.191Z,7984
2018-12-18T09:42:07.910Z,8304
2018-12-18T09:43:08.631Z,7728
2018-12-18T09:44:09.341Z,7600
2018-12-18T09:45:10.079Z,8816
2018-12-18T09:46:11.092Z,9492
2018-12-18T09:47:12.079Z,8400
2018-12-18T09:48:12.796Z,8852
2018-12-18T09:49:13.518Z,9092
2018-12-18T09:50:14.247Z,9020
2018-12-18T09:51:14.962Z,8300
2018-12-18T09:52:15.682Z,8540
2018-12-18T09:53:16.393Z,8960
2018-12-18T09:54:19.003Z,8608
2018-12-18T09:55:18.853Z,10040
2018-12-18T09:56:19.912Z,10664
2018-12-18T09:57:21.004Z,10324
2018-12-18T09:58:21.708Z,9380
2018-12-18T09:59:22.429Z,9752
2018-12-18T10:00:23.135Z,11108
2018-12-18T10:01:23.858Z,10584
2018-12-18T10:02:24.698Z,10680
2018-12-18T10:03:25.411Z,10584
2018-12-18T10:04:26.126Z,10352
2018-12-18T10:05:26.843Z,10240
2018-12-18T10:06:27.568Z,10064
2018-12-18T10:07:28.284Z,9600
2018-12-18T10:08:29.006Z,8264
2018-12-18T10:09:29.732Z,7528
2018-12-18T10:10:30.445Z,7080
2018-12-18T10:11:31.170Z,7456
2018-12-18T10:12:31.883Z,7816
2018-12-18T10:13:32.612Z,7236
2018-12-18T10:14:33.324Z,7228
2018-12-18T10:15:34.295Z,7296
2018-12-18T10:16:35.016Z,7180
2018-12-18T10:17:35.735Z,7372
2018-12-18T10:18:36.459Z,7320
2018-12-18T10:19:37.176Z,7472
2018-12-18T10:20:37.890Z,7464
2018-12-18T10:21:38.609Z,7560
2018-12-18T10:22:39.337Z,7172
2018-12-18T10:23:40.058Z,6652
2018-12-18T10:24:40.766Z,6268
2018-12-18T10:25:41.506Z,6452
2018-12-18T10:26:42.213Z,6752
2018-12-18T10:27:42.949Z,7220
2018-12-18T10:28:43.678Z,7420
2018-12-18T10:29:44.388Z,7560
2018-12-18T10:30:45.109Z,7740
2018-12-18T10:31:45.826Z,7940
2018-12-18T10:32:46.557Z,8380
2018-12-18T10:33:47.280Z,8960
2018-12-18T10:34:48.010Z,8328
2018-12-18T10:35:48.730Z,8028
2018-12-18T10:36:49.457Z,8244
2018-12-18T10:37:50.178Z,8212
2018-12-18T10:38:50.893Z,7764
2018-12-18T10:39:51.629Z,8028
2018-12-18T10:40:53.824Z,7836
2018-12-18T10:41:53.057Z,7524
2018-12-18T10:42:54.022Z,7864
2018-12-18T10:43:54.787Z,7300
2018-12-18T10:44:55.507Z,7176
2018-12-18T10:45:56.230Z,7468
2018-12-18T10:46:56.963Z,7548
2018-12-18T10:47:57.673Z,8064
2018-12-18T10:48:58.417Z,8992
2018-12-18T10:49:59.133Z,9804
2018-12-18T10:50:59.856Z,10660
2018-12-18T10:52:00.835Z,10632
2018-12-18T10:53:01.557Z,11192
2018-12-18T10:54:02.279Z,11336
2018-12-18T10:55:03.010Z,12420
2018-12-18T10:56:03.728Z,11884
2018-12-18T10:57:04.446Z,11780
2018-12-18T10:58:05.175Z,10056
2018-12-18T10:59:05.904Z,9796
2018-12-18T11:00:06.671Z,8964
2018-12-18T11:01:07.392Z,8668
2018-12-18T11:02:08.119Z,8436
2018-12-18T11:03:08.841Z,8432
2018-12-18T11:04:09.563Z,8460
2018-12-18T11:05:10.362Z,8100
2018-12-18T11:06:11.095Z,8180
2018-12-18T11:07:11.812Z,8372
2018-12-18T11:08:12.541Z,8248
2018-12-18T11:09:13.256Z,8668
2018-12-18T11:10:13.991Z,8484
2018-12-18T11:11:14.710Z,8192
2018-12-18T11:12:15.434Z,8648
2018-12-18T11:13:16.161Z,8520
2018-12-18T11:14:16.873Z,8688
2018-12-18T11:15:17.708Z,8516
2018-12-18T11:16:18.424Z,9344
2018-12-18T11:17:19.139Z,9816
2018-12-18T11:18:19.880Z,9292
2018-12-18T11:19:20.611Z,8456
2018-12-18T11:20:21.388Z,8204
2018-12-18T11:21:22.056Z,8364
2018-12-18T11:22:22.781Z,8624
2018-12-18T11:23:23.502Z,8964
2018-12-18T11:24:24.235Z,9188
2018-12-18T11:25:24.946Z,8888
2018-12-18T11:26:25.713Z,8888
2018-12-18T11:27:26.435Z,9444
2018-12-18T11:28:27.152Z,9472
2018-12-18T11:29:27.872Z,9992
2018-12-18T11:30:28.583Z,9628
2018-12-18T11:31:29.297Z,9668
2018-12-18T11:32:33.165Z,9880
2018-12-18T11:33:30.746Z,9880
2018-12-18T11:34:31.491Z,9712
2018-12-18T11:35:32.217Z,9268
2018-12-18T11:36:32.952Z,9016
2018-12-18T11:37:33.673Z,8776
2018-12-18T11:38:34.405Z,8512
2018-12-18T11:39:35.129Z,8012
2018-12-18T11:40:36.095Z,8292
2018-12-18T11:41:36.855Z,8416
2018-12-18T11:42:37.579Z,8076
2018-12-18T11:43:38.294Z,8332
2018-12-18T11:44:39.043Z,8680
2018-12-18T11:45:39.769Z,8440
2018-12-18T11:46:40.488Z,7996
2018-12-18T11:47:41.206Z,8280
2018-12-18T11:48:41.927Z,8472
2018-12-18T11:49:42.634Z,8024
2018-12-18T11:50:43.357Z,7736
2018-12-18T11:51:44.094Z,7684
2018-12-18T11:52:44.822Z,7932
2018-12-18T11:53:45.547Z,8576
2018-12-18T11:54:46.266Z,9508
2018-12-18T11:55:46.996Z,10012
2018-12-18T11:56:47.721Z,9952
2018-12-18T11:57:48.602Z,9456
2018-12-18T11:58:49.323Z,9236
2018-12-18T11:59:50.076Z,9204
2018-12-18T12:00:50.786Z,9496
2018-12-18T12:01:51.518Z,9560
2018-12-18T12:02:52.335Z,9308
2018-12-18T12:03:53.058Z,8776
2018-12-18T12:04:53.769Z,8528
2018-12-18T12:05:54.506Z,8796
2018-12-18T12:06:55.231Z,9392
2018-12-18T12:07:56.048Z,9172
2018-12-18T12:08:56.779Z,8384
2018-12-18T12:09:57.505Z,7960
2018-12-18T12:10:58.235Z,7916
2018-12-18T12:11:58.957Z,7988
2018-12-18T12:12:59.770Z,7552
2018-12-18T12:14:00.490Z,7068
2018-12-18T12:15:01.245Z,6960
2018-12-18T12:16:01.947Z,7000
2018-12-18T12:17:02.677Z,6940
2018-12-18T12:18:03.398Z,7000
2018-12-18T12:19:04.170Z,6944
2018-12-18T12:20:04.890Z,6736
2018-12-18T12:21:05.612Z,6788
2018-12-18T12:22:06.337Z,6408
2018-12-18T12:23:07.060Z,6188
2018-12-18T12:24:07.778Z,5980
2018-12-18T12:25:08.499Z,5864
2018-12-18T12:26:09.212Z,5656
2018-12-18T12:27:09.938Z,5404
2018-12-18T12:28:10.655Z,5428
2018-12-18T12:29:11.376Z,5520
2018-12-18T12:30:12.095Z,5544
2018-12-18T12:31:12.820Z,5408
2018-12-18T12:32:13.540Z,5352
2018-12-18T12:33:14.257Z,5396
2018-12-18T12:34:14.985Z,5104
2018-12-18T12:35:15.702Z,5008
2018-12-18T12:36:16.419Z,4932
2018-12-18T12:37:17.137Z,4904
2018-12-18T12:38:17.862Z,4836
2018-12-18T12:39:18.580Z,4832
2018-12-18T12:40:19.301Z,4824
2018-12-18T12:41:20.064Z,4836
2018-12-18T12:42:21.025Z,4928
2018-12-18T12:43:21.755Z,5056
2018-12-18T12:44:22.469Z,5104
2018-12-18T12:45:23.183Z,5136
2018-12-18T12:46:24.154Z,5148
2018-12-18T12:47:24.858Z,5124
2018-12-18T12:48:25.585Z,5112
2018-12-18T12:49:26.298Z,5032
2018-12-18T12:50:27.019Z,4940
2018-12-18T12:51:27.891Z,4936
2018-12-18T12:52:28.611Z,4912
2018-12-18T12:53:29.344Z,4856
2018-12-18T12:54:30.060Z,4800
2018-12-18T12:55:30.776Z,4752
2018-12-18T12:56:31.625Z,4712
2018-12-18T12:57:32.350Z,4668
2018-12-18T12:58:33.073Z,4624
2018-12-18T12:59:33.789Z,4600
2018-12-18T13:00:34.504Z,4580
2018-12-18T13:01:41.975Z,4564
2018-12-18T13:02:36.569Z,4596
2018-12-18T13:03:37.311Z,4644
2018-12-18T13:04:38.071Z,4688
2018-12-18T13:05:38.793Z,4728
2018-12-18T13:06:39.568Z,4780
2018-12-18T13:07:40.300Z,4836
2018-12-18T13:08:41.019Z,4888
2018-12-18T13:09:41.739Z,4932
2018-12-18T13:10:42.881Z,4968
2018-12-18T13:11:43.627Z,5000
2018-12-18T13:12:44.363Z,5028
2018-12-18T13:13:45.094Z,5048
2018-12-18T13:14:46.037Z,5060
2018-12-18T13:15:47.252Z,5068
2018-12-18T13:16:47.967Z,5072
2018-12-18T13:17:48.695Z,5072
2018-12-18T13:18:49.957Z,5068
2018-12-18T13:19:50.675Z,5072
2018-12-18T13:20:51.383Z,5068
2018-12-18T13:21:52.116Z,5052
2018-12-18T13:22:52.844Z,5040
2018-12-18T13:23:53.567Z,5024
2018-12-18T13:24:54.282Z,5008
2018-12-18T13:25:55.808Z,4992
2018-12-18T13:26:56.767Z,4980
2018-12-18T13:27:57.498Z,4956
2018-12-18T13:28:58.227Z,4952
2018-12-18T13:29:58.938Z,4944
2018-12-18T13:30:59.674Z,4944
2018-12-18T13:32:00.373Z,4928
2018-12-18T13:33:01.253Z,4912
2018-12-18T13:34:02.097Z,4884
2018-12-18T13:35:02.679Z,4848
2018-12-18T13:36:03.498Z,4800
2018-12-18T13:37:04.236Z,4736
2018-12-18T13:38:05.045Z,4668
2018-12-18T13:39:05.861Z,4584
2018-12-18T13:40:06.585Z,4504
2018-12-18T13:41:07.298Z,4424
2018-12-18T13:42:08.298Z,4344
2018-12-18T13:43:09.016Z,4256
2018-12-18T13:44:10.897Z,4172
2018-12-18T13:45:11.794Z,4092
2018-12-18T13:46:15.187Z,4032
2018-12-18T13:47:13.250Z,3964
2018-12-18T13:48:14.210Z,3908
2018-12-18T13:49:14.922Z,3848
2018-12-18T13:50:15.636Z,3796
2018-12-18T13:51:16.362Z,3756
2018-12-18T13:52:17.076Z,3700
2018-12-18T13:53:17.788Z,3656
2018-12-18T13:54:18.516Z,3624
2018-12-18T13:55:19.284Z,3592
2018-12-18T13:56:20.080Z,3564
2018-12-18T13:57:20.798Z,3536
2018-12-18T13:58:21.530Z,3508
2018-12-18T13:59:22.248Z,3468
2018-12-18T14:00:22.959Z,3432
2018-12-18T14:01:23.687Z,3392
2018-12-18T14:02:24.398Z,3348
2018-12-18T14:03:25.117Z,3312
2018-12-18T14:04:25.844Z,3260
2018-12-18T14:05:26.566Z,3208
2018-12-18T14:06:27.343Z,3160
2018-12-18T14:07:28.065Z,3104
2018-12-18T14:08:28.784Z,3056
2018-12-18T14:09:29.498Z,3004
2018-12-18T14:10:30.212Z,2964
2018-12-18T14:11:30.934Z,2924
2018-12-18T14:12:31.657Z,2880
2018-12-18T14:13:32.368Z,2836